Nearby METAR Reports

 

KSJC - San Jose, California, USA
Distance from station: NE 9mi, 14km
Updated: Sat, Feb-22-2020 11:53am CST
Partly cloudy
Partly cloudy
 Wind from SE
Wind: SE 10 mph , 17 km/h
Temperature: 63°F , 17°C
Dew Point: 45°F , 7°C
Humidity: 52%
Barometer: 30.03 inHg , 1016.9 hPa
Clouds: Partly cloudy
Visibility: 10 miles , 16 km
Cloud details: Few Clouds 2500 ft
Few Clouds 10000 ft
Partly cloudy 16000 ft
2020/02/22 17:53 KSJC 221753Z 14009KT 10SM FEW025 FEW100 SCT160 17/07 A3003 RMK AO2 SLP169 T01670072 10167 20117 51020 $
KNUQ - Moffett Nas/Mtn, California, USA
Distance from station: N 9mi, 14km
Updated: Thu, Nov-21-2019 10:56am CST
NOT Current

 
Barometer: 29.86 inHg , 1011.2 hPa
2019/11/21 16:56 KNUQ 211656Z AUTO A2986 RMK AO2 SLP116 PWINO $
 
KPAO - Palo Alto, California, USA
Distance from station: NNW 14mi, 23km
Updated: Sat, Feb-22-2020 11:47am CST
Few Clouds
Few Clouds
 Wind from N
Wind: N 8 mph , 13 km/h
Temperature: 57°F , 14°C
Dew Point: 52°F , 11°C
Humidity: 82%
Barometer: 30.04 inHg , 1017.3 hPa
Clouds: Few Clouds
Visibility: 10 miles , 16 km
Cloud details: Few Clouds 5000 ft
2020/02/22 17:47 KPAO 221747Z 35007KT 10SM FEW050 14/11 A3004
KRHV - San Jose/Reid, California, USA
Distance from station: ENE 12mi, 19km
Updated: Sat, Feb-22-2020 12:30pm CST
Partly cloudy
Partly cloudy
 Wind from SSE
Wind: SSE 10 mph , 17 km/h
Temperature: 63°F , 17°C
Dew Point: 46°F , 8°C
Humidity: 56%
Barometer: 30.04 inHg , 1017.3 hPa
Clouds: Partly cloudy
Visibility: 10 miles , 16 km
Cloud details: Partly cloudy 14000 ft
2020/02/22 18:30 KRHV 221830Z 15009KT 10SM SCT140 17/08 A3004
 
KOAK - Oakland, California, USA
Distance from station: NNW 31mi, 50km
Updated: Sat, Feb-22-2020 11:53am CST
Few Clouds
Few Clouds
 Wind from NW
Wind: NW 7 mph , 11 km/h
Temperature: 61°F , 16°C
Dew Point: 50°F , 10°C
Humidity: 68%
Barometer: 30.05 inHg , 1017.6 hPa
Clouds: Few Clouds
Visibility: 9 miles , 14 km
Cloud details: Few Clouds 800 ft
Few Clouds 14000 ft
2020/02/22 17:53 KOAK 221753Z 31006KT 9SM FEW008 FEW140 16/10 A3005 RMK AO2 SLP176 T01560100 10161 20122 51024
KSQL - San Carlos Airpo, California, USA
Distance from station: NW 21mi, 34km
Updated: Sat, Feb-22-2020 12:48pm CST
Few Clouds
Few Clouds
 Wind from NNW
Wind: NNW 7 mph , 11 km/h
Temperature: 61°F , 16°C
Dew Point: 48°F , 9°C
Humidity: 63%
Barometer: 30.05 inHg , 1017.6 hPa
Clouds: Few Clouds
Visibility: 09 miles , 14 km
Cloud details: Few Clouds 15000 ft
2020/02/22 18:48 KSQL 221848Z 34006KT 09SM FEW150 16/09 A3005
 
KSFO - San Francisco, California, USA
Distance from station: NW 30mi, 49km
Updated: Sat, Feb-22-2020 11:56am CST
Few Clouds
Few Clouds
 Wind from WNW
Wind: WNW 9 mph , 15 km/h
Temperature: 57°F , 14°C
Dew Point: 48°F , 9°C
Humidity: 72%
Barometer: 30.03 inHg , 1016.9 hPa
Clouds: Few Clouds
Visibility: 10 miles , 16 km
Cloud details: Few Clouds 900 ft
Few Clouds 15000 ft
2020/02/22 17:56 KSFO 221756Z 30008KT 10SM FEW009 FEW150 14/09 A3003 RMK AO2 SLP169 T01440089 10150 20111 51021
KE16 - San Martin, California, USA
Distance from station: ESE 27mi, 43km
Updated: Thu, Nov-14-2019 3:35am CST
NOT Current
Overcast
Overcast
 Wind from SE
Wind: SE 7 mph , 11 km/h
Temperature: 54°F , 12°C
Dew Point: 50°F , 10°C
Humidity: 88%
Barometer: 30.05 inHg , 1017.6 hPa
Clouds: Overcast
Visibility: 10 miles , 16 km
Cloud details: Overcast 1400 ft
2019/11/14 09:35 KE16 140935Z AUTO 13006KT 10SM OVC014 12/10 A3005 RMK AO2
 
KWVI - Watsonville, California, USA
Distance from station: SSE 27mi, 44km
Updated: Sat, Feb-22-2020 12:37pm CST
Overcast
Overcast
 Wind from SSW
Wind: SSW 7 mph , 11 km/h
Temperature: 57°F , 14°C
Dew Point: 52°F , 11°C
Humidity: 82%
Barometer: 30.09 inHg , 1019 hPa
Clouds: Overcast
Visibility: 10 miles , 16 km
Cloud details: Overcast 1500 ft
2020/02/22 18:37 KWVI 221837Z AUTO 20006KT 10SM OVC015 14/11 A3009 RMK AO2 T01390106
KHAF - Half Moon Bay, California, USA
Distance from station: WNW 31mi, 50km
Updated: Sat, Feb-22-2020 12:00pm CST

 
2020/02/22 18:00 KHAF 221800Z AUTO RMK AO2 PWINO
 
KHWD - Hayward, California, USA
Distance from station: N 28mi, 44km
Updated: Sat, Feb-22-2020 11:54am CST
Clear
Clear
 Wind from W
Wind: W 7 mph , 11 km/h
Temperature: 57°F , 14°C
Dew Point: 46°F , 8°C
Humidity: 67%
Barometer: 30.04 inHg , 1017.3 hPa
Clouds: Clear
Visibility: 10 miles , 16 km
2020/02/22 17:54 KHWD 221754Z 28006KT 10SM CLR 14/08 A3004 RMK AO2 SLP182 T01440083 10144 20100 51026
KLVK - Livermore, California, USA
Distance from station: NNE 31mi, 51km
Updated: Sat, Feb-22-2020 11:53am CST
Clear
Clear
 Wind from WSW
Wind: WSW 10 mph , 17 km/h
Temperature: 63°F , 17°C
Dew Point: 41°F , 5°C
Humidity: 45%
Barometer: 30.01 inHg , 1016.3 hPa
Clouds: Clear
Visibility: 10 miles , 16 km
2020/02/22 17:53 KLVK 221753Z 25009KT 10SM CLR 17/05 A3001 RMK AO2 SLP160 T01720050 10172 20100 51019